createdAt,value
2022-10-13T00:01:18.715Z,12.60
2022-10-13T00:03:48.728Z,12.60
2022-10-13T00:06:19.173Z,12.60
2022-10-13T00:08:46.326Z,12.70
2022-10-13T00:11:20.356Z,12.70
2022-10-13T00:13:47.898Z,12.70
2022-10-13T00:16:21.564Z,12.70
2022-10-13T00:18:50.488Z,12.70
2022-10-13T00:21:20.968Z,12.70
2022-10-13T00:23:48.182Z,12.70
2022-10-13T00:26:16.732Z,12.70
2022-10-13T00:28:51.973Z,12.70
2022-10-13T00:31:25.311Z,12.70
2022-10-13T00:33:53.040Z,12.70
2022-10-13T00:36:21.517Z,12.80
2022-10-13T00:38:48.454Z,12.80
2022-10-13T00:41:15.645Z,12.80
2022-10-13T00:43:58.228Z,12.80
2022-10-13T00:46:37.137Z,12.80
2022-10-13T00:49:09.702Z,12.80
2022-10-13T00:51:47.390Z,12.80
2022-10-13T00:54:17.848Z,12.80
2022-10-13T00:56:45.959Z,12.80
2022-10-13T00:59:23.244Z,12.80
2022-10-13T01:01:51.392Z,12.80
2022-10-13T01:04:19.682Z,12.80
2022-10-13T01:06:47.544Z,12.80
2022-10-13T01:09:14.391Z,12.80
2022-10-13T01:11:47.465Z,12.80
2022-10-13T01:14:21.386Z,12.80
2022-10-13T01:16:54.079Z,12.80
2022-10-13T01:19:52.055Z,12.80
2022-10-13T01:22:40.485Z,12.80
2022-10-13T01:25:18.857Z,12.80
2022-10-13T01:27:52.716Z,12.80
2022-10-13T01:30:21.120Z,12.80
2022-10-13T01:33:10.782Z,12.80
2022-10-13T01:36:00.029Z,12.80
2022-10-13T01:38:50.258Z,12.80
2022-10-13T01:41:51.683Z,12.80
2022-10-13T01:44:33.229Z,12.80
2022-10-13T01:47:01.916Z,12.80
2022-10-13T01:49:32.445Z,12.80
2022-10-13T01:52:04.524Z,12.80
2022-10-13T01:54:32.957Z,12.80
2022-10-13T01:56:59.751Z,12.90
2022-10-13T01:59:30.742Z,12.90
2022-10-13T02:02:19.334Z,12.90
2022-10-13T02:04:55.686Z,12.90
2022-10-13T02:07:38.165Z,12.90
2022-10-13T02:10:27.635Z,13.00
2022-10-13T02:13:06.118Z,13.00
2022-10-13T02:15:43.495Z,13.00
2022-10-13T02:18:13.695Z,13.00
2022-10-13T02:20:42.271Z,13.00
2022-10-13T02:23:12.647Z,13.00
2022-10-13T02:25:40.239Z,13.00
2022-10-13T02:28:08.437Z,13.00
2022-10-13T02:30:35.485Z,13.00
2022-10-13T02:33:03.245Z,13.00
2022-10-13T02:35:30.984Z,13.00
2022-10-13T02:37:57.808Z,13.00
2022-10-13T02:40:24.750Z,13.10
2022-10-13T02:42:51.436Z,13.10
2022-10-13T02:45:18.191Z,13.10
2022-10-13T02:47:47.869Z,13.10
2022-10-13T02:50:14.782Z,13.10
2022-10-13T02:52:41.642Z,13.10
2022-10-13T02:55:08.991Z,13.10
2022-10-13T02:57:36.094Z,13.10
2022-10-13T03:00:05.699Z,13.10
2022-10-13T03:02:32.522Z,13.10
2022-10-13T03:04:59.278Z,13.10
2022-10-13T03:07:26.023Z,13.10
2022-10-13T03:09:53.038Z,13.10
2022-10-13T03:12:20.114Z,13.20
2022-10-13T03:14:47.019Z,13.10
2022-10-13T03:17:13.926Z,13.10
2022-10-13T03:19:47.764Z,13.10
2022-10-13T03:22:15.585Z,13.10
2022-10-13T03:24:43.022Z,13.10
2022-10-13T03:27:10.426Z,13.10
2022-10-13T03:29:37.321Z,13.10
2022-10-13T03:32:04.150Z,13.10
2022-10-13T03:34:30.952Z,13.10
2022-10-13T03:36:57.935Z,13.10
2022-10-13T03:39:24.929Z,13.10
2022-10-13T03:41:51.832Z,13.10
2022-10-13T03:44:18.708Z,13.10
2022-10-13T03:46:45.477Z,13.20
2022-10-13T03:49:12.592Z,13.20
2022-10-13T03:51:39.799Z,13.20
2022-10-13T03:54:06.596Z,13.20
2022-10-13T03:56:37.287Z,13.20
2022-10-13T03:59:05.063Z,13.20
2022-10-13T04:01:35.773Z,13.20
2022-10-13T04:04:02.928Z,13.20
2022-10-13T04:06:30.830Z,13.30
2022-10-13T04:08:58.151Z,13.30
2022-10-13T04:11:25.174Z,13.30
2022-10-13T04:13:52.548Z,13.30
2022-10-13T04:16:21.892Z,13.30
2022-10-13T04:19:07.452Z,13.30
2022-10-13T04:21:35.537Z,13.30
2022-10-13T04:24:03.698Z,13.30
2022-10-13T04:26:33.043Z,13.30
2022-10-13T04:29:00.501Z,13.30
2022-10-13T04:31:29.036Z,13.30
2022-10-13T04:33:56.281Z,13.30
2022-10-13T04:36:23.413Z,13.30
2022-10-13T04:38:50.495Z,13.30
2022-10-13T04:41:18.479Z,13.30
2022-10-13T04:43:48.675Z,13.30
2022-10-13T04:46:19.505Z,13.30
2022-10-13T04:48:47.006Z,13.30
2022-10-13T04:51:17.199Z,13.30
2022-10-13T04:53:46.463Z,13.30
2022-10-13T04:56:17.416Z,13.30
2022-10-13T04:58:46.372Z,13.30
2022-10-13T05:01:21.177Z,13.30
2022-10-13T05:03:54.398Z,13.30
2022-10-13T05:06:24.235Z,13.30
2022-10-13T05:08:51.188Z,13.30
2022-10-13T05:11:20.579Z,13.40
2022-10-13T05:13:48.152Z,13.40
2022-10-13T05:16:16.614Z,13.40
2022-10-13T05:18:44.153Z,13.40
2022-10-13T05:21:12.568Z,13.40
2022-10-13T05:23:39.416Z,13.40
2022-10-13T05:26:13.071Z,13.40
2022-10-13T05:28:40.752Z,13.40
2022-10-13T05:31:13.277Z,13.40
2022-10-13T05:33:40.083Z,13.40
2022-10-13T05:36:09.197Z,13.50
2022-10-13T05:38:36.024Z,13.50
2022-10-13T05:41:11.447Z,13.50
2022-10-13T05:43:40.709Z,13.50
2022-10-13T05:46:10.401Z,13.50
2022-10-13T05:48:38.273Z,13.50
2022-10-13T05:51:16.479Z,13.60
2022-10-13T05:53:57.646Z,13.60
2022-10-13T05:56:36.797Z,13.60
2022-10-13T05:59:08.232Z,13.60
2022-10-13T06:01:38.332Z,13.60
2022-10-13T06:04:11.395Z,13.60
2022-10-13T06:06:38.535Z,13.60
2022-10-13T06:09:05.386Z,13.60
2022-10-13T06:11:32.629Z,13.70
2022-10-13T06:13:59.393Z,13.70
2022-10-13T06:16:28.932Z,13.70
2022-10-13T06:18:55.719Z,13.70
2022-10-13T06:21:22.462Z,13.70
2022-10-13T06:23:49.145Z,13.70
2022-10-13T06:26:16.036Z,13.70
2022-10-13T06:28:46.243Z,13.70
2022-10-13T06:31:15.782Z,13.70
2022-10-13T06:33:42.533Z,13.70
2022-10-13T06:36:09.753Z,13.70
2022-10-13T06:38:36.591Z,13.70
2022-10-13T06:41:06.696Z,13.70
2022-10-13T06:43:40.455Z,13.70
2022-10-13T06:46:07.770Z,13.70
2022-10-13T06:48:34.620Z,13.70
2022-10-13T06:51:10.090Z,13.70
2022-10-13T06:53:36.966Z,13.70
2022-10-13T06:56:05.901Z,13.70
2022-10-13T06:58:34.094Z,13.60
2022-10-13T07:01:01.045Z,13.70
2022-10-13T07:03:27.928Z,13.60
2022-10-13T07:05:54.821Z,13.60
2022-10-13T07:08:21.747Z,13.60
2022-10-13T07:10:48.837Z,13.60
2022-10-13T07:13:15.561Z,13.60
2022-10-13T07:15:42.608Z,13.70
2022-10-13T07:18:09.416Z,13.70
2022-10-13T07:20:36.298Z,13.70
2022-10-13T07:23:03.564Z,13.70
2022-10-13T07:25:30.260Z,13.70
2022-10-13T07:27:59.255Z,13.70
2022-10-13T07:30:26.889Z,13.80
2022-10-13T07:32:53.938Z,13.80
2022-10-13T07:35:22.598Z,13.80
2022-10-13T07:37:53.762Z,13.80
2022-10-13T07:40:20.567Z,13.80
2022-10-13T07:42:47.462Z,13.80
2022-10-13T07:45:14.360Z,13.80
2022-10-13T07:47:41.092Z,13.80
2022-10-13T07:50:08.283Z,13.90
2022-10-13T07:52:38.420Z,13.90
2022-10-13T07:55:05.840Z,13.90
2022-10-13T07:57:32.729Z,13.90
2022-10-13T07:59:59.417Z,13.90
2022-10-13T08:02:26.462Z,13.90
2022-10-13T08:04:53.276Z,14.00
2022-10-13T08:07:20.362Z,14.00
2022-10-13T08:09:47.299Z,14.00
2022-10-13T08:12:14.269Z,14.10
2022-10-13T08:14:42.023Z,14.10
2022-10-13T08:17:08.913Z,14.20
2022-10-13T08:19:35.725Z,14.20
2022-10-13T08:22:05.460Z,14.20
2022-10-13T08:24:34.584Z,14.30
2022-10-13T08:27:01.425Z,14.30
2022-10-13T08:29:28.472Z,14.30
2022-10-13T08:31:55.586Z,14.40
2022-10-13T08:34:25.671Z,14.40
2022-10-13T08:36:56.169Z,14.50
2022-10-13T08:39:24.281Z,14.60
2022-10-13T08:41:52.069Z,14.60
2022-10-13T08:45:02.733Z,14.70
2022-10-13T08:47:23.832Z,14.80
2022-10-13T08:49:50.799Z,14.80
2022-10-13T08:52:26.243Z,14.90
2022-10-13T08:54:55.521Z,14.90
2022-10-13T08:57:23.282Z,15.00
2022-10-13T08:59:52.016Z,15.00
2022-10-13T09:02:30.329Z,15.00
2022-10-13T09:05:02.661Z,15.10
2022-10-13T09:07:45.547Z,15.10
2022-10-13T09:10:12.613Z,15.10
2022-10-13T09:12:39.355Z,15.00
2022-10-13T09:15:09.905Z,15.10
2022-10-13T09:17:39.604Z,15.10
2022-10-13T09:20:18.620Z,15.10
2022-10-13T09:22:59.998Z,15.10
2022-10-13T09:25:26.714Z,15.10
2022-10-13T09:27:59.945Z,15.10
2022-10-13T09:30:36.565Z,15.20
2022-10-13T09:33:09.295Z,15.20
2022-10-13T09:35:47.691Z,15.20
2022-10-13T09:38:18.266Z,15.30
2022-10-13T09:41:16.694Z,15.40
2022-10-13T09:43:46.445Z,15.40
2022-10-13T09:46:48.805Z,15.50
2022-10-13T09:49:43.611Z,15.60
2022-10-13T09:52:13.339Z,15.60
2022-10-13T09:54:39.991Z,15.60
2022-10-13T09:57:26.999Z,15.60
2022-10-13T10:00:24.242Z,15.60
2022-10-13T10:02:55.993Z,15.60
2022-10-13T10:05:48.210Z,15.60
2022-10-13T10:09:02.317Z,15.50
2022-10-13T10:11:33.641Z,15.50
2022-10-13T10:14:28.838Z,15.50
2022-10-13T10:17:38.232Z,15.40
2022-10-13T10:20:16.875Z,15.40
2022-10-13T10:23:09.377Z,15.40
2022-10-13T10:25:54.030Z,15.30
2022-10-13T10:28:32.559Z,15.30
2022-10-13T10:31:17.146Z,15.20
2022-10-13T10:34:07.421Z,15.20
2022-10-13T10:36:43.932Z,15.10
2022-10-13T10:39:32.261Z,15.10
2022-10-13T10:42:22.782Z,15.00
2022-10-13T10:44:53.653Z,15.00
2022-10-13T10:47:29.961Z,14.90
2022-10-13T10:50:08.949Z,14.90
2022-10-13T10:52:56.400Z,14.90
2022-10-13T10:55:43.846Z,14.80
2022-10-13T10:58:20.954Z,14.80
2022-10-13T11:01:05.589Z,14.80
2022-10-13T11:03:58.469Z,14.80
2022-10-13T11:06:37.272Z,14.90
2022-10-13T11:09:07.658Z,14.90
2022-10-13T11:11:38.035Z,15.00
2022-10-13T11:14:10.769Z,15.00
2022-10-13T11:17:07.094Z,15.10
2022-10-13T11:19:35.771Z,15.20
2022-10-13T11:22:08.760Z,15.20
2022-10-13T11:24:41.217Z,15.20
2022-10-13T11:27:08.020Z,15.30
2022-10-13T11:29:49.161Z,15.30
2022-10-13T11:32:30.862Z,15.30
2022-10-13T11:35:06.431Z,15.30
2022-10-13T11:38:08.146Z,15.30
2022-10-13T11:40:42.156Z,15.30
2022-10-13T11:43:14.703Z,15.30
2022-10-13T11:45:47.173Z,15.30
2022-10-13T11:48:58.767Z,15.30
2022-10-13T11:51:52.942Z,15.30
2022-10-13T11:54:25.186Z,15.30
2022-10-13T11:56:54.202Z,15.20
2022-10-13T11:59:29.278Z,15.20
2022-10-13T12:02:12.221Z,15.20
2022-10-13T12:04:46.350Z,15.20
2022-10-13T12:07:17.376Z,15.20
2022-10-13T12:09:50.958Z,15.20
2022-10-13T12:12:20.732Z,15.20
2022-10-13T12:14:51.737Z,15.20
2022-10-13T12:17:27.272Z,15.20
2022-10-13T12:19:56.273Z,15.20
2022-10-13T12:22:23.556Z,15.30
2022-10-13T12:25:03.808Z,15.30
2022-10-13T12:27:33.187Z,15.40
2022-10-13T12:30:01.576Z,15.50
2022-10-13T12:32:30.768Z,15.50
2022-10-13T12:35:15.744Z,15.60
2022-10-13T12:37:42.601Z,15.60
2022-10-13T12:40:13.927Z,15.60
2022-10-13T12:42:41.642Z,15.60
2022-10-13T12:45:18.875Z,15.60
2022-10-13T12:47:45.692Z,15.50
2022-10-13T12:50:37.067Z,15.50
2022-10-13T12:53:20.560Z,15.50
2022-10-13T12:55:59.303Z,15.50
2022-10-13T12:58:34.829Z,15.50
2022-10-13T13:01:08.187Z,15.50
2022-10-13T13:03:39.854Z,15.50
2022-10-13T13:06:10.873Z,15.50
2022-10-13T13:08:37.769Z,15.50
2022-10-13T13:11:20.857Z,15.40
2022-10-13T13:13:48.031Z,15.40
2022-10-13T13:16:20.679Z,15.40
2022-10-13T13:18:52.495Z,15.40
2022-10-13T13:21:20.226Z,15.40
2022-10-13T13:23:52.710Z,15.50
2022-10-13T13:26:23.120Z,15.50
2022-10-13T13:28:55.683Z,15.50
2022-10-13T13:31:24.817Z,15.60
2022-10-13T13:33:52.125Z,15.60
2022-10-13T13:36:26.192Z,15.60
2022-10-13T13:38:54.213Z,15.70
2022-10-13T13:41:23.837Z,15.70
2022-10-13T13:43:50.808Z,15.70
2022-10-13T13:46:21.127Z,15.80
2022-10-13T13:48:48.386Z,15.90
2022-10-13T13:51:15.479Z,16.10
2022-10-13T13:53:42.527Z,16.10
2022-10-13T13:56:13.908Z,16.20
2022-10-13T13:58:40.744Z,16.20
2022-10-13T14:01:07.493Z,16.20
2022-10-13T14:03:34.238Z,16.30
2022-10-13T14:06:01.091Z,16.30
2022-10-13T14:08:34.433Z,16.30
2022-10-13T14:11:05.304Z,16.30
2022-10-13T14:13:37.562Z,16.30
2022-10-13T14:16:08.659Z,16.30
2022-10-13T14:18:35.578Z,16.20
2022-10-13T14:21:06.314Z,16.20
2022-10-13T14:23:33.210Z,16.10
2022-10-13T14:26:00.009Z,16.10
2022-10-13T14:28:26.938Z,16.10
2022-10-13T14:30:53.720Z,16.10
2022-10-13T14:33:20.461Z,16.00
2022-10-13T14:35:47.270Z,16.00
2022-10-13T14:38:14.644Z,16.00
2022-10-13T14:40:42.329Z,16.00
2022-10-13T14:43:09.041Z,16.00
2022-10-13T14:45:35.876Z,15.90
2022-10-13T14:48:02.709Z,15.90
2022-10-13T14:50:29.463Z,15.90
2022-10-13T14:52:56.314Z,15.90
2022-10-13T14:55:23.086Z,15.90
2022-10-13T14:57:49.845Z,15.90
2022-10-13T15:00:16.811Z,15.90
2022-10-13T15:02:43.620Z,15.90
2022-10-13T15:05:11.751Z,15.90
2022-10-13T15:07:41.101Z,15.90
2022-10-13T15:10:08.799Z,15.80
2022-10-13T15:12:38.382Z,15.80
2022-10-13T15:15:05.943Z,15.80
2022-10-13T15:17:33.528Z,15.80
2022-10-13T15:20:00.492Z,15.80
2022-10-13T15:22:27.921Z,15.80
2022-10-13T15:24:54.767Z,15.80
2022-10-13T15:27:21.615Z,15.80
2022-10-13T15:29:54.681Z,15.80
2022-10-13T15:32:21.784Z,15.70
2022-10-13T15:34:48.885Z,15.70
2022-10-13T15:37:15.705Z,15.70
2022-10-13T15:39:45.461Z,15.70
2022-10-13T15:42:12.343Z,15.70
2022-10-13T15:47:28.764Z,15.60
2022-10-13T15:49:55.639Z,15.70
2022-10-13T15:52:22.740Z,15.70
2022-10-13T15:54:51.572Z,15.70
2022-10-13T15:57:18.400Z,15.60
2022-10-13T15:59:45.109Z,15.60
2022-10-13T16:02:11.823Z,15.60
2022-10-13T16:04:38.615Z,15.60
2022-10-13T16:07:05.386Z,15.60
2022-10-13T16:09:34.851Z,15.60
2022-10-13T16:12:01.875Z,15.60
2022-10-13T16:14:28.711Z,15.60
2022-10-13T16:16:55.400Z,15.60
2022-10-13T16:19:22.281Z,15.60
2022-10-13T16:21:49.069Z,15.60
2022-10-13T16:24:21.938Z,15.60
2022-10-13T16:26:48.751Z,15.60
2022-10-13T16:29:15.749Z,15.60
2022-10-13T16:31:42.482Z,15.60
2022-10-13T16:34:10.396Z,15.50
2022-10-13T16:36:37.188Z,15.50
2022-10-13T16:39:03.920Z,15.50
2022-10-13T16:41:30.691Z,15.50
2022-10-13T16:43:59.862Z,15.40
2022-10-13T16:46:27.563Z,15.40
2022-10-13T16:48:54.644Z,15.40
2022-10-13T16:51:24.218Z,15.30
2022-10-13T16:53:53.083Z,15.30
2022-10-13T16:56:24.643Z,15.30
2022-10-13T16:59:02.993Z,15.30
2022-10-13T17:01:31.500Z,15.30
2022-10-13T17:03:58.840Z,15.30
2022-10-13T17:06:30.361Z,15.30
2022-10-13T17:08:59.404Z,15.30
2022-10-13T17:11:28.790Z,15.30
2022-10-13T17:13:59.341Z,15.20
2022-10-13T17:16:27.020Z,15.20
2022-10-13T17:18:55.083Z,15.20
2022-10-13T17:21:22.201Z,15.20
2022-10-13T17:23:49.556Z,15.20
2022-10-13T17:26:18.105Z,15.20
2022-10-13T17:28:48.295Z,15.20
2022-10-13T17:31:19.995Z,15.20
2022-10-13T17:33:47.659Z,15.20
2022-10-13T17:36:17.685Z,15.20
2022-10-13T17:38:44.511Z,15.20
2022-10-13T17:41:14.561Z,15.10
2022-10-13T17:43:42.182Z,15.10
2022-10-13T17:49:02.722Z,15.10
2022-10-13T17:51:29.553Z,15.10
2022-10-13T17:53:59.184Z,15.00
2022-10-13T17:56:26.682Z,15.00
2022-10-13T17:58:53.565Z,15.00
2022-10-13T18:01:28.869Z,15.00
2022-10-13T18:03:57.928Z,15.00
2022-10-13T18:06:25.079Z,15.00
2022-10-13T18:08:52.510Z,14.90
2022-10-13T18:11:22.006Z,14.90
2022-10-13T18:13:49.023Z,14.90
2022-10-13T18:16:21.434Z,14.80
2022-10-13T18:18:50.166Z,14.80
2022-10-13T18:21:19.828Z,14.80
2022-10-13T18:23:46.624Z,14.80
2022-10-13T18:26:16.240Z,14.70
2022-10-13T18:28:44.199Z,14.70
2022-10-13T18:31:14.770Z,14.70
2022-10-13T18:33:42.025Z,14.70
2022-10-13T18:36:23.683Z,14.70
2022-10-13T18:38:52.313Z,14.70
2022-10-13T18:41:29.664Z,14.70
2022-10-13T18:43:57.455Z,14.70
2022-10-13T18:46:24.167Z,14.70
2022-10-13T18:48:54.121Z,14.70
2022-10-13T18:51:20.964Z,14.70
2022-10-13T18:53:53.459Z,14.70
2022-10-13T18:56:39.727Z,14.60
2022-10-13T18:59:07.515Z,14.70
2022-10-13T19:01:37.252Z,14.60
2022-10-13T19:04:05.324Z,14.60
2022-10-13T19:06:32.812Z,14.60
2022-10-13T19:09:05.858Z,14.50
2022-10-13T19:11:33.949Z,14.50
2022-10-13T19:14:01.654Z,14.40
2022-10-13T19:16:31.882Z,14.40
2022-10-13T19:18:58.699Z,14.40
2022-10-13T19:21:29.368Z,14.30
2022-10-13T19:24:02.072Z,14.20
2022-10-13T19:26:32.260Z,14.20
2022-10-13T19:29:08.369Z,14.20
2022-10-13T19:31:37.054Z,14.20
2022-10-13T19:34:04.030Z,14.10
2022-10-13T19:36:34.915Z,14.10
2022-10-13T19:39:04.283Z,14.10
2022-10-13T19:41:32.316Z,14.00
2022-10-13T19:43:59.571Z,13.90
2022-10-13T19:46:29.279Z,13.90
2022-10-13T19:48:55.950Z,13.90
2022-10-13T19:51:22.754Z,13.80
2022-10-13T19:53:49.546Z,13.80
2022-10-13T19:56:24.784Z,13.80
2022-10-13T19:58:52.414Z,13.70
2022-10-13T20:01:19.993Z,13.70
2022-10-13T20:03:47.519Z,13.70
2022-10-13T20:06:15.031Z,13.70
2022-10-13T20:08:41.950Z,13.60
2022-10-13T20:11:12.052Z,13.60
2022-10-13T20:13:44.317Z,13.60
2022-10-13T20:16:13.789Z,13.60
2022-10-13T20:18:43.323Z,13.60
2022-10-13T20:21:12.096Z,13.50
2022-10-13T20:23:40.617Z,13.50
2022-10-13T20:26:10.700Z,13.50
2022-10-13T20:28:43.052Z,13.50
2022-10-13T20:31:14.573Z,13.50
2022-10-13T20:33:41.916Z,13.50
2022-10-13T20:36:12.501Z,13.40
2022-10-13T20:38:39.467Z,13.40
2022-10-13T20:41:18.867Z,13.40
2022-10-13T20:43:47.022Z,13.40
2022-10-13T20:46:14.143Z,13.40
2022-10-13T20:49:09.358Z,13.40
2022-10-13T20:51:31.939Z,13.40
2022-10-13T20:53:58.641Z,13.30
2022-10-13T20:56:26.586Z,13.30
2022-10-13T20:58:53.565Z,13.30
2022-10-13T21:01:22.210Z,13.30
2022-10-13T21:03:55.758Z,13.30
2022-10-13T21:06:24.343Z,13.30
2022-10-13T21:08:51.749Z,13.20
2022-10-13T21:11:20.561Z,13.20
2022-10-13T21:13:48.481Z,13.20
2022-10-13T21:16:24.068Z,13.20
2022-10-13T21:18:51.760Z,13.20
2022-10-13T21:21:24.256Z,13.20
2022-10-13T21:23:56.361Z,13.20
2022-10-13T21:26:24.130Z,13.20
2022-10-13T21:28:51.799Z,13.10
2022-10-13T21:31:20.633Z,13.10
2022-10-13T21:33:48.015Z,13.10
2022-10-13T21:36:18.096Z,13.10
2022-10-13T21:38:48.384Z,13.10
2022-10-13T21:41:15.854Z,13.10
2022-10-13T21:43:42.767Z,13.10
2022-10-13T21:46:11.389Z,13.00
2022-10-13T21:48:38.425Z,13.00
2022-10-13T21:51:20.644Z,13.00
2022-10-13T21:54:02.503Z,13.00
2022-10-13T21:56:32.838Z,12.90
2022-10-13T21:59:00.048Z,12.90
2022-10-13T22:01:29.892Z,12.80
2022-10-13T22:03:58.657Z,12.80
2022-10-13T22:06:29.308Z,12.80
2022-10-13T22:08:58.263Z,12.70
2022-10-13T22:11:29.557Z,12.70
2022-10-13T22:13:57.397Z,12.60
2022-10-13T22:16:27.648Z,12.60
2022-10-13T22:18:56.198Z,12.50
2022-10-13T22:21:26.733Z,12.50
2022-10-13T22:23:59.495Z,12.50
2022-10-13T22:26:28.131Z,12.40
2022-10-13T22:28:56.290Z,12.40
2022-10-13T22:31:23.198Z,12.40
2022-10-13T22:33:53.429Z,12.40
2022-10-13T22:36:24.665Z,12.40
2022-10-13T22:38:54.068Z,12.40
2022-10-13T22:41:21.511Z,12.40
2022-10-13T22:43:53.418Z,12.40
2022-10-13T22:46:22.484Z,12.50
2022-10-13T22:48:50.061Z,12.50
2022-10-13T22:51:22.299Z,12.50
2022-10-13T22:53:50.003Z,12.50
2022-10-13T22:56:25.484Z,12.50
2022-10-13T22:58:54.226Z,12.50
2022-10-13T23:01:21.930Z,12.50
2022-10-13T23:03:52.841Z,12.50
2022-10-13T23:06:21.983Z,12.50
2022-10-13T23:08:49.249Z,12.50
2022-10-13T23:11:16.660Z,12.60
2022-10-13T23:13:43.484Z,12.60
2022-10-13T23:16:16.058Z,12.60
2022-10-13T23:18:43.579Z,12.60
2022-10-13T23:21:13.607Z,12.60
2022-10-13T23:23:43.333Z,12.60
2022-10-13T23:26:13.471Z,12.70
2022-10-13T23:28:43.248Z,12.70
2022-10-13T23:31:13.394Z,12.70
2022-10-13T23:33:40.851Z,12.70
2022-10-13T23:36:08.597Z,12.80
2022-10-13T23:38:35.572Z,12.80
2022-10-13T23:41:07.422Z,12.80
2022-10-13T23:43:34.201Z,12.80
2022-10-13T23:46:01.161Z,12.80
2022-10-13T23:48:28.686Z,12.80
2022-10-13T23:50:55.369Z,12.80
2022-10-13T23:53:22.197Z,12.80
2022-10-13T23:55:51.391Z,12.90
2022-10-13T23:58:18.151Z,12.80
